Terminal Aerodrome Forecast
Issued by NWS

Home | Current Version | Previous Version | Graphics & Text | Print | Product List | Glossary On
Versions: 1 2 3 4 5 6 7 8 9 10 11 12 13 14 15
730
FTUS43 KMPX 212336
TAFAXN
TAF
KAXN 212336Z 2200/2224 31013KT P6SM VCSH OVC025
     FM220300 28007KT P6SM OVC035
     FM221400 31011KT P6SM BKN080=

USA.gov is the U.S. government's official web portal to all federal, state and local government web resources and services.